createdAt,value
2023-05-21T00:00:02.925Z,517.00
2023-05-21T00:01:02.914Z,518.00
2023-05-21T00:02:02.905Z,520.00
2023-05-21T00:03:02.966Z,514.00
2023-05-21T00:04:03.034Z,509.00
2023-05-21T00:05:02.915Z,515.00
2023-05-21T00:06:02.933Z,515.00
2023-05-21T00:07:02.893Z,515.00
2023-05-21T00:08:02.925Z,516.00
2023-05-21T00:09:02.894Z,515.00
2023-05-21T00:10:02.903Z,505.00
2023-05-21T00:11:02.892Z,506.00
2023-05-21T00:12:02.898Z,500.00
2023-05-21T00:13:02.890Z,506.00
2023-05-21T00:14:02.880Z,506.00
2023-05-21T00:15:02.900Z,500.00
2023-05-21T00:16:02.905Z,508.00
2023-05-21T00:17:02.900Z,500.00
2023-05-21T00:18:02.888Z,508.00
2023-05-21T00:19:02.944Z,507.00
2023-05-21T00:20:02.873Z,505.00
2023-05-21T00:21:02.870Z,506.00
2023-05-21T00:22:02.865Z,507.00
2023-05-21T00:23:02.945Z,503.00
2023-05-21T00:24:02.854Z,509.00
2023-05-21T00:25:02.883Z,505.00
2023-05-21T00:26:02.862Z,505.00
2023-05-21T00:27:02.862Z,505.00
2023-05-21T00:28:02.849Z,502.00
2023-05-21T00:29:02.855Z,492.00
2023-05-21T00:30:02.867Z,497.00
2023-05-21T00:31:02.832Z,493.00
2023-05-21T00:32:02.922Z,504.00
2023-05-21T00:33:03.171Z,509.00
2023-05-21T00:34:02.822Z,511.00
2023-05-21T00:35:02.861Z,508.00
2023-05-21T00:36:02.807Z,503.00
2023-05-21T00:37:02.798Z,503.00
2023-05-21T00:38:02.792Z,500.00
2023-05-21T00:39:02.805Z,515.00
2023-05-21T00:40:02.804Z,514.00
2023-05-21T00:41:02.818Z,518.00
2023-05-21T00:42:02.780Z,519.00
2023-05-21T00:43:02.781Z,517.00
2023-05-21T00:44:02.774Z,513.00
2023-05-21T00:45:02.780Z,513.00
2023-05-21T00:46:02.856Z,514.00
2023-05-21T00:47:02.778Z,514.00
2023-05-21T00:48:02.843Z,518.00
2023-05-21T00:49:02.783Z,515.00
2023-05-21T00:50:02.758Z,519.00
2023-05-21T00:51:02.758Z,520.00
2023-05-21T00:52:02.750Z,519.00
2023-05-21T00:53:02.753Z,516.00
2023-05-21T00:54:02.760Z,519.00
2023-05-21T00:55:02.761Z,519.00
2023-05-21T00:56:02.738Z,516.00
2023-05-21T00:57:02.731Z,507.00
2023-05-21T00:58:02.741Z,517.00
2023-05-21T00:59:02.735Z,526.00
2023-05-21T01:00:02.749Z,529.00
2023-05-21T01:01:02.774Z,528.00
2023-05-21T01:02:02.807Z,532.00
2023-05-21T01:03:02.837Z,534.00
2023-05-21T01:04:02.731Z,530.00
2023-05-21T01:05:02.734Z,517.00
2023-05-21T01:06:02.704Z,514.00
2023-05-21T01:07:02.708Z,514.00
2023-05-21T01:08:02.698Z,506.00
2023-05-21T01:09:04.399Z,516.00
2023-05-21T01:10:02.691Z,519.00
2023-05-21T01:11:02.682Z,516.00
2023-05-21T01:12:02.680Z,518.00
2023-05-21T01:13:02.703Z,514.00
2023-05-21T01:14:02.690Z,511.00
2023-05-21T01:15:02.692Z,514.00
2023-05-21T01:16:02.693Z,520.00
2023-05-21T01:17:02.704Z,517.00
2023-05-21T01:18:02.784Z,517.00
2023-05-21T01:19:02.858Z,525.00
2023-05-21T01:20:02.714Z,524.00
2023-05-21T01:21:02.713Z,525.00
2023-05-21T01:22:02.741Z,530.00
2023-05-21T01:23:02.719Z,531.00
2023-05-21T01:24:02.738Z,523.00
2023-05-21T01:25:02.899Z,530.00
2023-05-21T01:26:02.756Z,531.00
2023-05-21T01:27:02.746Z,536.00
2023-05-21T01:28:02.754Z,531.00
2023-05-21T01:29:02.766Z,539.00
2023-05-21T01:30:02.742Z,539.00
2023-05-21T01:31:02.761Z,537.00
2023-05-21T01:32:02.752Z,538.00
2023-05-21T01:33:02.880Z,544.00
2023-05-21T01:34:02.867Z,542.00
2023-05-21T01:35:02.755Z,540.00
2023-05-21T01:36:02.761Z,542.00
2023-05-21T01:37:02.758Z,542.00
2023-05-21T01:38:02.755Z,543.00
2023-05-21T01:39:02.753Z,545.00
2023-05-21T01:40:02.742Z,542.00
2023-05-21T01:41:02.744Z,548.00
2023-05-21T01:42:02.741Z,546.00
2023-05-21T01:43:02.728Z,547.00
2023-05-21T01:44:02.715Z,546.00
2023-05-21T01:45:02.715Z,546.00
2023-05-21T01:46:02.783Z,551.00
2023-05-21T01:47:02.693Z,551.00
2023-05-21T01:48:02.703Z,551.00
2023-05-21T01:49:02.692Z,547.00
2023-05-21T01:50:02.673Z,552.00
2023-05-21T01:51:02.654Z,546.00
2023-05-21T01:52:02.655Z,553.00
2023-05-21T01:53:02.654Z,552.00
2023-05-21T01:54:02.652Z,555.00
2023-05-21T01:55:02.631Z,555.00
2023-05-21T01:56:02.642Z,554.00
2023-05-21T01:57:02.637Z,550.00
2023-05-21T01:58:02.770Z,551.00
2023-05-21T01:59:02.621Z,560.00
2023-05-21T02:00:02.617Z,561.00
2023-05-21T02:01:02.619Z,558.00
2023-05-21T02:02:02.664Z,557.00
2023-05-21T02:03:02.771Z,555.00
2023-05-21T02:04:02.721Z,561.00
2023-05-21T02:05:02.599Z,563.00
2023-05-21T02:06:02.584Z,558.00
2023-05-21T02:07:02.572Z,562.00
2023-05-21T02:08:02.565Z,566.00
2023-05-21T02:09:02.579Z,565.00
2023-05-21T02:10:02.582Z,560.00
2023-05-21T02:11:02.579Z,562.00
2023-05-21T02:12:02.578Z,559.00
2023-05-21T02:13:02.577Z,565.00
2023-05-21T02:14:02.558Z,564.00
2023-05-21T02:15:02.594Z,558.00
2023-05-21T02:16:02.591Z,563.00
2023-05-21T02:17:02.568Z,558.00
2023-05-21T02:18:02.650Z,563.00
2023-05-21T02:19:02.588Z,565.00
2023-05-21T02:20:02.549Z,565.00
2023-05-21T02:21:02.542Z,561.00
2023-05-21T02:22:02.538Z,557.00
2023-05-21T02:23:02.541Z,557.00
2023-05-21T02:24:02.530Z,563.00
2023-05-21T02:25:02.534Z,565.00
2023-05-21T02:26:02.542Z,564.00
2023-05-21T02:27:02.512Z,564.00
2023-05-21T02:28:02.506Z,557.00
2023-05-21T02:29:02.503Z,563.00
2023-05-21T02:30:02.490Z,556.00
2023-05-21T02:31:02.510Z,558.00
2023-05-21T02:32:02.496Z,558.00
2023-05-21T02:33:02.522Z,548.00
2023-05-21T02:34:02.540Z,550.00
2023-05-21T02:35:02.511Z,552.00
2023-05-21T02:36:02.524Z,551.00
2023-05-21T02:37:02.542Z,545.00
2023-05-21T02:38:02.538Z,550.00
2023-05-21T02:39:02.543Z,539.00
2023-05-21T02:40:02.550Z,541.00
2023-05-21T02:41:02.558Z,539.00
2023-05-21T02:42:02.566Z,543.00
2023-05-21T02:43:02.584Z,550.00
2023-05-21T02:44:02.592Z,551.00
2023-05-21T02:45:02.614Z,551.00
2023-05-21T02:46:02.665Z,549.00
2023-05-21T02:47:02.639Z,543.00
2023-05-21T02:48:02.689Z,537.00
2023-05-21T02:49:02.651Z,535.00
2023-05-21T02:50:02.676Z,541.00
2023-05-21T02:51:02.689Z,534.00
2023-05-21T02:52:02.689Z,526.00
2023-05-21T02:53:02.724Z,529.00
2023-05-21T02:54:02.728Z,536.00
2023-05-21T02:55:02.747Z,539.00
2023-05-21T02:56:02.744Z,543.00
2023-05-21T02:57:02.751Z,544.00
2023-05-21T02:58:02.757Z,547.00
2023-05-21T02:59:02.756Z,547.00
2023-05-21T03:00:02.768Z,546.00
2023-05-21T03:01:02.805Z,548.00
2023-05-21T03:02:02.849Z,549.00
2023-05-21T03:03:02.878Z,550.00
2023-05-21T03:04:02.796Z,551.00
2023-05-21T03:05:02.802Z,557.00
2023-05-21T03:06:02.816Z,552.00
2023-05-21T03:07:02.835Z,553.00
2023-05-21T03:08:02.844Z,553.00
2023-05-21T03:09:02.843Z,550.00
2023-05-21T03:10:02.849Z,553.00
2023-05-21T03:11:02.845Z,554.00
2023-05-21T03:12:02.860Z,549.00
2023-05-21T03:13:02.861Z,555.00
2023-05-21T03:14:02.857Z,554.00
2023-05-21T03:15:02.856Z,548.00
2023-05-21T03:16:02.881Z,554.00
2023-05-21T03:17:02.902Z,549.00
2023-05-21T03:18:02.899Z,544.00
2023-05-21T03:19:02.989Z,543.00
2023-05-21T03:20:02.894Z,548.00
2023-05-21T03:21:02.902Z,550.00
2023-05-21T03:22:02.917Z,547.00
2023-05-21T03:23:02.921Z,545.00
2023-05-21T03:24:02.930Z,548.00
2023-05-21T03:25:02.931Z,552.00
2023-05-21T03:26:02.953Z,552.00
2023-05-21T03:27:02.961Z,551.00
2023-05-21T03:28:02.961Z,544.00
2023-05-21T03:29:02.978Z,543.00
2023-05-21T03:30:03.903Z,546.00
2023-05-21T03:31:02.991Z,541.00
2023-05-21T03:32:03.069Z,545.00
2023-05-21T03:33:03.058Z,542.00
2023-05-21T03:34:03.022Z,539.00
2023-05-21T03:35:03.020Z,540.00
2023-05-21T03:36:03.047Z,535.00
2023-05-21T03:37:03.057Z,538.00
2023-05-21T03:38:03.068Z,539.00
2023-05-21T03:39:03.075Z,540.00
2023-05-21T03:40:03.083Z,541.00
2023-05-21T03:41:03.105Z,539.00
2023-05-21T03:42:03.215Z,542.00
2023-05-21T03:43:03.115Z,543.00
2023-05-21T03:44:03.139Z,538.00
2023-05-21T03:45:03.167Z,545.00
2023-05-21T03:46:03.219Z,544.00
2023-05-21T03:47:03.177Z,545.00
2023-05-21T03:48:03.217Z,547.00
2023-05-21T03:49:03.202Z,550.00
2023-05-21T03:50:03.216Z,545.00
2023-05-21T03:51:03.217Z,544.00
2023-05-21T03:52:03.230Z,549.00
2023-05-21T03:53:03.238Z,544.00
2023-05-21T03:54:03.243Z,553.00
2023-05-21T03:55:03.255Z,550.00
2023-05-21T03:56:03.264Z,556.00
2023-05-21T03:57:03.262Z,550.00
2023-05-21T03:58:03.281Z,550.00
2023-05-21T03:59:03.285Z,550.00
2023-05-21T04:00:03.306Z,553.00
2023-05-21T04:01:03.315Z,547.00
2023-05-21T04:02:03.327Z,549.00
2023-05-21T04:03:03.374Z,549.00
2023-05-21T04:04:03.496Z,551.00
2023-05-21T04:05:03.291Z,552.00
2023-05-21T04:06:03.291Z,555.00
2023-05-21T04:07:03.284Z,558.00
2023-05-21T04:08:03.299Z,551.00
2023-05-21T04:09:03.281Z,563.00
2023-05-21T04:10:03.287Z,558.00
2023-05-21T04:11:03.284Z,553.00
2023-05-21T04:12:03.270Z,556.00
2023-05-21T04:13:03.282Z,559.00
2023-05-21T04:14:03.292Z,559.00
2023-05-21T04:15:03.286Z,560.00
2023-05-21T04:16:03.323Z,556.00
2023-05-21T04:17:03.275Z,553.00
2023-05-21T04:18:03.349Z,555.00
2023-05-21T04:19:03.279Z,557.00
2023-05-21T04:20:03.268Z,554.00
2023-05-21T04:21:03.286Z,560.00
2023-05-21T04:22:03.269Z,557.00
2023-05-21T04:23:03.287Z,555.00
2023-05-21T04:24:03.266Z,553.00
2023-05-21T04:25:03.280Z,557.00
2023-05-21T04:26:03.270Z,561.00
2023-05-21T04:27:03.239Z,565.00
2023-05-21T04:28:03.250Z,558.00
2023-05-21T04:29:03.254Z,560.00
2023-05-21T04:30:03.264Z,560.00
2023-05-21T04:31:03.285Z,553.00
2023-05-21T04:32:03.268Z,561.00
2023-05-21T04:33:03.278Z,563.00
2023-05-21T04:34:03.242Z,563.00
2023-05-21T04:35:03.236Z,561.00
2023-05-21T04:36:03.272Z,560.00
2023-05-21T04:37:03.260Z,559.00
2023-05-21T04:38:04.308Z,563.00
2023-05-21T04:39:03.233Z,567.00
2023-05-21T04:40:03.258Z,561.00
2023-05-21T04:41:03.237Z,560.00
2023-05-21T04:42:03.275Z,560.00
2023-05-21T04:43:03.236Z,563.00
2023-05-21T04:44:03.262Z,565.00
2023-05-21T04:45:03.246Z,561.00
2023-05-21T04:46:03.340Z,561.00
2023-05-21T04:47:03.319Z,562.00
2023-05-21T04:48:03.272Z,559.00
2023-05-21T04:49:03.279Z,559.00
2023-05-21T04:50:03.218Z,554.00
2023-05-21T04:51:03.220Z,560.00
2023-05-21T04:52:03.220Z,563.00
2023-05-21T04:53:03.215Z,559.00
2023-05-21T04:54:03.220Z,560.00
2023-05-21T04:55:03.233Z,560.00
2023-05-21T04:56:03.235Z,560.00
2023-05-21T04:57:03.240Z,556.00
2023-05-21T04:58:03.266Z,558.00
2023-05-21T04:59:05.313Z,562.00
2023-05-21T05:00:03.336Z,560.00
2023-05-21T05:01:03.463Z,560.00
2023-05-21T05:02:03.354Z,557.00
2023-05-21T05:03:03.470Z,557.00
2023-05-21T05:04:03.400Z,560.00
2023-05-21T05:05:03.442Z,557.00
2023-05-21T05:06:03.503Z,553.00
2023-05-21T05:07:03.578Z,547.00
2023-05-21T05:08:03.638Z,538.00
2023-05-21T05:09:03.690Z,531.00
2023-05-21T05:10:03.757Z,529.00
2023-05-21T05:11:03.829Z,533.00
2023-05-21T05:12:03.874Z,532.00
2023-05-21T05:13:03.891Z,532.00
2023-05-21T05:14:03.925Z,532.00
2023-05-21T05:15:03.931Z,538.00
2023-05-21T05:16:03.970Z,527.00
2023-05-21T05:17:03.948Z,516.00
2023-05-21T05:18:04.018Z,517.00
2023-05-21T05:19:04.106Z,518.00
2023-05-21T05:20:04.103Z,520.00
2023-05-21T05:21:04.154Z,523.00
2023-05-21T05:22:04.202Z,528.00
2023-05-21T05:23:04.239Z,528.00
2023-05-21T05:24:04.256Z,525.00
2023-05-21T05:25:04.286Z,526.00
2023-05-21T05:26:04.333Z,534.00
2023-05-21T05:27:04.346Z,530.00
2023-05-21T05:28:04.366Z,527.00
2023-05-21T05:29:04.424Z,529.00
2023-05-21T05:30:04.480Z,526.00
2023-05-21T05:31:04.573Z,528.00
2023-05-21T05:32:04.542Z,526.00
2023-05-21T05:33:04.706Z,524.00
2023-05-21T05:34:04.628Z,531.00
2023-05-21T05:35:04.652Z,534.00
2023-05-21T05:36:04.721Z,532.00
2023-05-21T05:37:04.754Z,534.00
2023-05-21T05:38:04.793Z,537.00
2023-05-21T05:39:04.862Z,538.00
2023-05-21T05:40:04.931Z,535.00
2023-05-21T05:41:04.984Z,534.00
2023-05-21T05:42:05.041Z,529.00
2023-05-21T05:43:05.109Z,518.00
2023-05-21T05:44:05.158Z,519.00
2023-05-21T05:45:05.218Z,520.00
2023-05-21T05:46:05.284Z,520.00
2023-05-21T05:47:05.332Z,530.00
2023-05-21T05:48:05.457Z,524.00
2023-05-21T05:49:05.461Z,525.00
2023-05-21T05:50:05.530Z,521.00
2023-05-21T05:51:05.524Z,521.00
2023-05-21T05:52:05.539Z,517.00
2023-05-21T05:53:05.510Z,522.00
2023-05-21T05:54:05.511Z,519.00
2023-05-21T05:55:05.505Z,530.00
2023-05-21T05:56:05.506Z,522.00
2023-05-21T05:57:05.493Z,520.00
2023-05-21T05:58:05.500Z,514.00
2023-05-21T05:59:05.496Z,510.00
2023-05-21T06:00:05.488Z,512.00
2023-05-21T06:01:05.483Z,514.00
2023-05-21T06:02:05.475Z,514.00
2023-05-21T06:03:05.544Z,513.00
2023-05-21T06:04:05.479Z,499.00
2023-05-21T06:05:05.470Z,498.00
2023-05-21T06:06:05.607Z,497.00
2023-05-21T06:07:05.452Z,500.00
2023-05-21T06:08:05.456Z,500.00
2023-05-21T06:09:05.442Z,499.00
2023-05-21T06:10:05.439Z,500.00
2023-05-21T06:11:05.436Z,497.00
2023-05-21T06:12:05.429Z,498.00
2023-05-21T06:13:05.409Z,501.00
2023-05-21T06:14:05.407Z,501.00
2023-05-21T06:15:05.416Z,501.00
2023-05-21T06:16:05.494Z,502.00
2023-05-21T06:17:05.386Z,502.00
2023-05-21T06:18:05.396Z,504.00
2023-05-21T06:19:05.524Z,505.00
2023-05-21T06:20:05.375Z,505.00
2023-05-21T06:21:05.376Z,506.00
2023-05-21T06:22:05.373Z,508.00
2023-05-21T06:23:05.378Z,510.00
2023-05-21T06:24:05.357Z,504.00
2023-05-21T06:25:05.357Z,499.00
2023-05-21T06:26:05.360Z,502.00
2023-05-21T06:27:05.353Z,506.00
2023-05-21T06:28:05.349Z,509.00
2023-05-21T06:29:05.361Z,505.00
2023-05-21T06:30:05.352Z,501.00
2023-05-21T06:31:05.321Z,504.00
2023-05-21T06:32:05.328Z,500.00
2023-05-21T06:33:05.344Z,505.00
2023-05-21T06:34:05.503Z,508.00
2023-05-21T06:35:05.306Z,503.00
2023-05-21T06:36:05.312Z,500.00
2023-05-21T06:37:05.299Z,507.00
2023-05-21T06:38:05.309Z,507.00
2023-05-21T06:39:05.297Z,501.00
2023-05-21T06:40:05.287Z,505.00
2023-05-21T06:41:05.282Z,505.00
2023-05-21T06:42:05.282Z,504.00
2023-05-21T06:43:05.317Z,494.00
2023-05-21T06:44:05.280Z,496.00
2023-05-21T06:45:05.276Z,498.00
2023-05-21T06:46:05.321Z,504.00
2023-05-21T06:47:05.251Z,507.00
2023-05-21T06:48:05.303Z,508.00
2023-05-21T06:49:05.237Z,505.00
2023-05-21T06:50:05.221Z,503.00
2023-05-21T06:51:05.238Z,503.00
2023-05-21T06:52:05.227Z,500.00
2023-05-21T06:53:05.202Z,504.00
2023-05-21T06:54:05.211Z,500.00
2023-05-21T06:55:05.185Z,504.00
2023-05-21T06:56:05.184Z,504.00
2023-05-21T06:57:05.167Z,501.00
2023-05-21T06:58:05.170Z,508.00
2023-05-21T06:59:05.153Z,509.00
2023-05-21T07:00:05.148Z,510.00
2023-05-21T07:01:05.210Z,503.00
2023-05-21T07:02:05.257Z,505.00
2023-05-21T07:03:05.464Z,504.00
2023-05-21T07:04:05.340Z,502.00
2023-05-21T07:05:05.390Z,503.00
2023-05-21T07:06:05.467Z,502.00
2023-05-21T07:07:05.487Z,500.00
2023-05-21T07:08:05.545Z,500.00
2023-05-21T07:09:05.588Z,502.00
2023-05-21T07:10:05.625Z,510.00
2023-05-21T07:11:05.692Z,508.00
2023-05-21T07:12:05.728Z,508.00
2023-05-21T07:13:05.713Z,508.00
2023-05-21T07:14:05.721Z,508.00
2023-05-21T07:15:05.701Z,510.00
2023-05-21T07:16:05.693Z,512.00
2023-05-21T07:17:05.752Z,508.00
2023-05-21T07:18:05.693Z,506.00
2023-05-21T07:19:05.700Z,504.00
2023-05-21T07:20:05.668Z,500.00
2023-05-21T07:21:05.641Z,505.00
2023-05-21T07:22:05.629Z,510.00
2023-05-21T07:23:05.665Z,512.00
2023-05-21T07:24:05.698Z,518.00
2023-05-21T07:25:05.737Z,519.00
2023-05-21T07:26:05.789Z,520.00
2023-05-21T07:27:14.352Z,515.00
2023-05-21T07:28:06.968Z,515.00
2023-05-21T07:29:05.782Z,515.00
2023-05-21T07:30:05.780Z,511.00
2023-05-21T07:31:05.831Z,509.00
2023-05-21T07:32:05.747Z,501.00
2023-05-21T07:33:05.778Z,504.00
2023-05-21T07:34:05.728Z,504.00
2023-05-21T07:35:05.727Z,509.00
2023-05-21T07:36:05.710Z,511.00
2023-05-21T07:37:05.713Z,504.00
2023-05-21T07:38:05.752Z,505.00
2023-05-21T07:39:05.693Z,507.00
2023-05-21T07:40:05.701Z,510.00
2023-05-21T07:41:05.749Z,505.00
2023-05-21T07:42:05.770Z,509.00
2023-05-21T07:43:05.804Z,507.00
2023-05-21T07:44:05.838Z,508.00
2023-05-21T07:45:05.877Z,513.00
2023-05-21T07:46:05.943Z,503.00
2023-05-21T07:47:05.935Z,500.00
2023-05-21T07:48:06.016Z,501.00
2023-05-21T07:49:05.999Z,506.00
2023-05-21T07:50:06.011Z,504.00
2023-05-21T07:51:06.042Z,508.00
2023-05-21T07:52:06.088Z,512.00
2023-05-21T07:53:06.151Z,508.00
2023-05-21T07:54:06.124Z,502.00
2023-05-21T07:55:06.133Z,503.00
2023-05-21T07:56:06.158Z,504.00
2023-05-21T07:57:06.172Z,504.00
2023-05-21T07:58:06.207Z,501.00
2023-05-21T07:59:06.207Z,501.00
2023-05-21T08:00:06.231Z,503.00
2023-05-21T08:01:06.267Z,505.00
2023-05-21T08:02:06.261Z,500.00
2023-05-21T08:03:06.386Z,504.00
2023-05-21T08:04:06.517Z,503.00
2023-05-21T08:05:06.405Z,508.00
2023-05-21T08:06:06.345Z,512.00
2023-05-21T08:07:06.344Z,511.00
2023-05-21T08:08:06.368Z,516.00
2023-05-21T08:09:06.414Z,512.00
2023-05-21T08:10:06.413Z,512.00
2023-05-21T08:11:06.451Z,514.00
2023-05-21T08:12:06.427Z,516.00
2023-05-21T08:13:06.434Z,514.00
2023-05-21T08:14:06.453Z,512.00
2023-05-21T08:15:06.468Z,506.00
2023-05-21T08:16:06.478Z,505.00
2023-05-21T08:17:06.444Z,501.00
2023-05-21T08:18:06.464Z,500.00
2023-05-21T08:19:06.476Z,493.00
2023-05-21T08:20:06.407Z,488.00
2023-05-21T08:21:06.435Z,507.00
2023-05-21T08:22:06.393Z,514.00
2023-05-21T08:23:06.403Z,513.00
2023-05-21T08:24:06.376Z,512.00
2023-05-21T08:25:06.370Z,512.00
2023-05-21T08:26:06.367Z,505.00
2023-05-21T08:27:06.343Z,501.00
2023-05-21T08:28:06.337Z,484.00
2023-05-21T08:29:06.322Z,483.00
2023-05-21T08:30:06.314Z,504.00
2023-05-21T08:31:06.306Z,500.00
2023-05-21T08:32:06.444Z,504.00
2023-05-21T08:33:06.344Z,508.00
2023-05-21T08:34:06.280Z,505.00
2023-05-21T08:35:06.262Z,506.00
2023-05-21T08:36:06.271Z,517.00
2023-05-21T08:37:06.250Z,508.00
2023-05-21T08:38:06.236Z,515.00
2023-05-21T08:39:06.254Z,512.00
2023-05-21T08:40:06.238Z,512.00
2023-05-21T08:41:06.223Z,522.00
2023-05-21T08:42:06.217Z,520.00
2023-05-21T08:43:06.213Z,524.00
2023-05-21T08:44:06.196Z,522.00
2023-05-21T08:45:06.187Z,530.00
2023-05-21T08:46:06.305Z,526.00
2023-05-21T08:47:06.176Z,535.00
2023-05-21T08:48:06.263Z,536.00
2023-05-21T08:49:06.156Z,538.00
2023-05-21T08:50:06.133Z,536.00
2023-05-21T08:51:06.129Z,538.00
2023-05-21T08:52:06.115Z,538.00
2023-05-21T08:53:15.818Z,539.00
2023-05-21T08:54:07.072Z,539.00
2023-05-21T08:55:06.091Z,540.00
2023-05-21T08:56:06.060Z,544.00
2023-05-21T08:57:06.043Z,547.00
2023-05-21T08:58:06.035Z,552.00
2023-05-21T08:59:06.029Z,545.00
2023-05-21T09:00:06.006Z,549.00
2023-05-21T09:01:06.037Z,540.00
2023-05-21T09:02:05.983Z,541.00
2023-05-21T09:03:06.039Z,538.00
2023-05-21T09:04:19.499Z,539.00
2023-05-21T09:05:06.946Z,539.00
2023-05-21T09:06:05.941Z,539.00
2023-05-21T09:07:05.929Z,541.00
2023-05-21T09:08:05.919Z,540.00
2023-05-21T09:09:05.895Z,551.00
2023-05-21T09:10:05.886Z,549.00
2023-05-21T09:11:05.872Z,552.00
2023-05-21T09:12:05.852Z,547.00
2023-05-21T09:13:05.852Z,555.00
2023-05-21T09:14:05.842Z,552.00
2023-05-21T09:15:05.843Z,555.00
2023-05-21T09:16:05.826Z,554.00
2023-05-21T09:17:05.910Z,557.00
2023-05-21T09:18:05.833Z,561.00
2023-05-21T09:19:05.826Z,552.00
2023-05-21T09:20:05.789Z,556.00
2023-05-21T09:21:05.818Z,553.00
2023-05-21T09:22:05.781Z,553.00
2023-05-21T09:23:05.786Z,552.00
2023-05-21T09:24:05.745Z,559.00
2023-05-21T09:25:05.724Z,557.00
2023-05-21T09:26:05.728Z,556.00
2023-05-21T09:27:05.717Z,561.00
2023-05-21T09:28:05.700Z,563.00
2023-05-21T09:29:05.709Z,567.00
2023-05-21T09:30:05.683Z,560.00
2023-05-21T09:31:05.692Z,566.00
2023-05-21T09:32:05.677Z,568.00
2023-05-21T09:33:05.697Z,564.00
2023-05-21T09:34:05.647Z,574.00
2023-05-21T09:35:05.638Z,574.00
2023-05-21T09:36:05.630Z,574.00
2023-05-21T09:37:08.502Z,575.00
2023-05-21T09:38:06.605Z,575.00
2023-05-21T09:39:05.608Z,577.00
2023-05-21T09:40:05.595Z,579.00
2023-05-21T09:41:05.592Z,585.00
2023-05-21T09:42:05.592Z,585.00
2023-05-21T09:43:05.580Z,587.00
2023-05-21T09:44:05.555Z,591.00
2023-05-21T09:45:05.566Z,585.00
2023-05-21T09:46:05.584Z,586.00
2023-05-21T09:47:05.551Z,589.00
2023-05-21T09:48:05.545Z,586.00
2023-05-21T09:49:05.529Z,590.00
2023-05-21T09:50:05.516Z,581.00
2023-05-21T09:51:05.518Z,586.00
2023-05-21T09:52:05.518Z,586.00
2023-05-21T09:53:05.501Z,592.00
2023-05-21T09:54:05.485Z,589.00
2023-05-21T09:55:05.471Z,590.00
2023-05-21T09:56:05.462Z,591.00
2023-05-21T09:57:05.439Z,584.00
2023-05-21T09:58:05.438Z,592.00
2023-05-21T09:59:05.417Z,593.00
2023-05-21T10:00:05.412Z,597.00
2023-05-21T10:01:05.406Z,601.00
2023-05-21T10:02:05.423Z,595.00
2023-05-21T10:03:05.396Z,600.00
2023-05-21T10:04:05.406Z,589.00
2023-05-21T10:05:05.373Z,592.00
2023-05-21T10:06:05.351Z,578.00
2023-05-21T10:07:05.360Z,573.00
2023-05-21T10:08:05.341Z,584.00
2023-05-21T10:09:05.902Z,575.00
2023-05-21T10:10:05.334Z,568.00
2023-05-21T10:11:05.386Z,580.00
2023-05-21T10:12:05.430Z,576.00
2023-05-21T10:13:05.476Z,569.00
2023-05-21T10:14:05.539Z,571.00
2023-05-21T10:15:05.580Z,571.00
2023-05-21T10:16:05.670Z,580.00
2023-05-21T10:17:05.662Z,576.00
2023-05-21T10:18:05.766Z,579.00
2023-05-21T10:19:05.742Z,575.00
2023-05-21T10:20:05.732Z,578.00
2023-05-21T10:21:05.754Z,583.00
2023-05-21T10:22:05.779Z,588.00
2023-05-21T10:23:05.828Z,589.00
2023-05-21T10:24:05.827Z,586.00
2023-05-21T10:25:05.825Z,585.00
2023-05-21T10:26:05.829Z,580.00
2023-05-21T10:27:05.817Z,579.00
2023-05-21T10:28:05.802Z,584.00
2023-05-21T10:29:05.788Z,577.00
2023-05-21T10:30:05.783Z,576.00
2023-05-21T10:31:05.770Z,570.00
2023-05-21T10:32:05.790Z,571.00
2023-05-21T10:33:05.798Z,572.00
2023-05-21T10:34:05.751Z,576.00
2023-05-21T10:35:05.741Z,581.00
2023-05-21T10:36:05.759Z,574.00
2023-05-21T10:37:05.747Z,584.00
2023-05-21T10:38:05.780Z,582.00
2023-05-21T10:39:05.756Z,582.00
2023-05-21T10:40:05.735Z,584.00
2023-05-21T10:41:05.754Z,586.00
2023-05-21T10:42:05.723Z,591.00
2023-05-21T10:43:05.692Z,594.00
2023-05-21T10:44:05.674Z,600.00
2023-05-21T10:45:05.673Z,600.00
2023-05-21T10:46:05.715Z,603.00
2023-05-21T10:47:05.644Z,602.00
2023-05-21T10:48:05.643Z,609.00
2023-05-21T10:49:05.614Z,612.00
2023-05-21T10:50:05.608Z,611.00
2023-05-21T10:51:05.583Z,610.00
2023-05-21T10:52:05.561Z,616.00
2023-05-21T10:53:05.536Z,615.00
2023-05-21T10:54:05.516Z,615.00
2023-05-21T10:55:05.498Z,616.00
2023-05-21T10:56:05.474Z,618.00
2023-05-21T10:57:05.481Z,616.00
2023-05-21T10:58:05.440Z,624.00
2023-05-21T10:59:05.443Z,622.00
2023-05-21T11:00:05.420Z,626.00
2023-05-21T11:01:05.453Z,621.00
2023-05-21T11:02:05.438Z,624.00
2023-05-21T11:03:05.489Z,622.00
2023-05-21T11:04:05.368Z,631.00
2023-05-21T11:05:05.384Z,632.00
2023-05-21T11:06:05.400Z,627.00
2023-05-21T11:07:05.388Z,633.00
2023-05-21T11:08:05.371Z,630.00
2023-05-21T11:09:05.377Z,635.00
2023-05-21T11:10:05.376Z,630.00
2023-05-21T11:11:05.370Z,635.00
2023-05-21T11:12:05.356Z,638.00
2023-05-21T11:13:05.347Z,636.00
2023-05-21T11:14:05.346Z,635.00
2023-05-21T11:15:05.333Z,637.00
2023-05-21T11:16:05.327Z,641.00
2023-05-21T11:17:05.356Z,642.00
2023-05-21T11:18:05.371Z,644.00
2023-05-21T11:19:05.351Z,642.00
2023-05-21T11:20:05.299Z,649.00
2023-05-21T11:21:05.286Z,641.00
2023-05-21T11:22:05.252Z,642.00
2023-05-21T11:23:05.228Z,643.00
2023-05-21T11:24:05.207Z,644.00
2023-05-21T11:25:05.203Z,649.00
2023-05-21T11:26:05.185Z,652.00
2023-05-21T11:27:05.163Z,653.00
2023-05-21T11:28:05.143Z,652.00
2023-05-21T11:29:05.133Z,644.00
2023-05-21T11:30:05.122Z,652.00
2023-05-21T11:31:05.119Z,651.00
2023-05-21T11:32:05.083Z,646.00
2023-05-21T11:33:05.095Z,650.00
2023-05-21T11:34:05.062Z,650.00
2023-05-21T11:35:05.056Z,650.00
2023-05-21T11:36:05.057Z,644.00
2023-05-21T11:37:05.022Z,651.00
2023-05-21T11:38:05.004Z,646.00
2023-05-21T11:39:04.987Z,648.00
2023-05-21T11:40:04.978Z,644.00
2023-05-21T11:41:04.977Z,643.00
2023-05-21T11:42:05.017Z,639.00
2023-05-21T11:43:04.942Z,640.00
2023-05-21T11:44:04.928Z,636.00
2023-05-21T11:45:04.906Z,639.00
2023-05-21T11:46:04.992Z,637.00
2023-05-21T11:47:04.869Z,637.00
2023-05-21T11:48:04.932Z,641.00
2023-05-21T11:49:04.854Z,635.00
2023-05-21T11:50:04.877Z,638.00
2023-05-21T11:51:04.835Z,637.00
2023-05-21T11:52:04.813Z,635.00
2023-05-21T11:53:04.795Z,638.00
2023-05-21T11:54:04.788Z,640.00
2023-05-21T11:55:04.771Z,638.00
2023-05-21T11:56:04.761Z,634.00
2023-05-21T11:57:04.757Z,639.00
2023-05-21T11:58:04.742Z,637.00
2023-05-21T11:59:04.711Z,638.00
2023-05-21T12:00:04.699Z,640.00
2023-05-21T12:01:04.685Z,644.00
2023-05-21T12:02:04.666Z,642.00
2023-05-21T12:03:04.726Z,641.00
2023-05-21T12:04:04.676Z,645.00
2023-05-21T12:05:04.615Z,639.00
2023-05-21T12:06:04.627Z,641.00
2023-05-21T12:07:04.591Z,643.00
2023-05-21T12:08:04.575Z,643.00
2023-05-21T12:09:04.590Z,647.00
2023-05-21T12:10:04.568Z,643.00
2023-05-21T12:11:04.566Z,644.00
2023-05-21T12:12:04.550Z,646.00
2023-05-21T12:13:04.549Z,647.00
2023-05-21T12:14:04.638Z,642.00
2023-05-21T12:15:04.601Z,650.00
2023-05-21T12:16:06.679Z,647.00
2023-05-21T12:17:04.604Z,647.00
2023-05-21T12:18:04.623Z,653.00
2023-05-21T12:19:04.638Z,655.00
2023-05-21T12:20:04.580Z,651.00
2023-05-21T12:21:04.578Z,653.00
2023-05-21T12:22:04.550Z,648.00
2023-05-21T12:23:04.536Z,650.00
2023-05-21T12:24:04.515Z,648.00
2023-05-21T12:25:04.511Z,656.00
2023-05-21T12:26:04.487Z,651.00
2023-05-21T12:27:04.479Z,651.00
2023-05-21T12:28:04.448Z,652.00